Terminal Aerodrome Forecast
Issued by NWS

Home | Current Version | Previous Version | Text Only | Print | Product List | Glossary On
Versions: 1 2 3 4 5 6 7 8 9 10 11 12 13 14 15 16 17 18 19 20 21 22 23 24 25 26
000
FTUS45 KCYS 301800 CCA
TAFLAR
TAF COR
KLAR 301800Z 3018/3118 25015G25KT P6SM SKC
     FM302100 24014G24KT P6SM BKN150
     FM310000 23014KT P6SM VCTS BKN080CB
     FM310600 23008KT P6SM VCSH BKN080=

USA.gov is the U.S. government's official web portal to all federal, state and local government web resources and services.